Time;durP1;ratioP1;P1;durP2;ratioP2;P2;SDS_P1;SDS_P2;PMS_P1;PMS_P2;Temp;Humidity;BMP_temperature;BMP_pressure;BME280_temperature;BME280_humidity;BME280_pressure;Samples;Min_cycle;Max_cycle;Signal;HPM_P1;HPM_P2
2022/04/18 00:01:04;;;;;;;7.50;4.80;;;10.70;74.10;;;;;;4961734;28;20209;-75
2022/04/18 00:03:32;;;;;;;10.87;5.20;;;10.70;73.90;;;;;;4957848;28;20260;-75
2022/04/18 00:06:02;;;;;;;8.50;4.83;;;10.70;74.10;;;;;;4955263;28;20301;-78
2022/04/18 00:08:30;;;;;;;7.80;5.53;;;10.70;74.90;;;;;;4955683;28;20201;-77
2022/04/18 00:10:59;;;;;;;9.43;5.27;;;10.70;74.80;;;;;;4960119;28;20212;-77
2022/04/18 00:13:29;;;;;;;8.07;5.23;;;10.60;75.20;;;;;;4962819;28;20204;-78
2022/04/18 00:15:58;;;;;;;9.50;5.80;;;10.60;75.10;;;;;;4964744;28;22276;-78
2022/04/18 00:18:26;;;;;;;8.70;4.97;;;10.60;75.40;;;;;;4961744;28;20819;-79
2022/04/18 00:20:54;;;;;;;8.47;5.40;;;10.60;75.20;;;;;;4960888;28;20618;-77
2022/04/18 00:23:23;;;;;;;9.93;4.83;;;10.60;75.10;;;;;;4965305;28;20660;-77
2022/04/18 00:25:51;;;;;;;7.87;5.27;;;10.60;75.40;;;;;;4963308;28;20197;-76
2022/04/18 00:28:19;;;;;;;7.60;4.77;;;10.60;75.30;;;;;;4963693;28;20696;-77
2022/04/18 00:30:49;;;;;;;8.57;5.23;;;10.60;75.40;;;;;;4962174;28;20225;-76
2022/04/18 00:33:17;;;;;;;8.17;4.80;;;10.60;75.40;;;;;;4964271;28;20205;-76
2022/04/18 00:35:46;;;;;;;7.47;4.03;;;10.60;75.30;;;;;;4966440;28;20198;-77
2022/04/18 00:38:14;;;;;;;5.93;4.27;;;10.60;75.10;;;;;;4963532;28;20971;-77
2022/04/18 00:40:43;;;;;;;8.60;4.20;;;10.60;75.00;;;;;;4965202;28;20565;-77
2022/04/18 00:43:11;;;;;;;5.80;3.97;;;10.70;74.80;;;;;;4963138;28;20216;-76
2022/04/18 00:45:39;;;;;;;6.53;4.23;;;10.60;74.70;;;;;;4964808;28;20232;-77
2022/04/18 00:48:09;;;;;;;6.37;4.13;;;10.60;74.70;;;;;;4963540;28;20201;-77
2022/04/18 00:50:40;;;;;;;7.27;4.70;;;10.60;74.50;;;;;;4964907;28;20246;-78
2022/04/18 00:53:08;;;;;;;5.43;4.00;;;10.60;75.20;;;;;;4960922;28;20973;-77
2022/04/18 00:55:37;;;;;;;7.20;4.70;;;10.60;75.40;;;;;;4959108;28;20225;-78
2022/04/18 00:58:08;;;;;;;7.23;4.50;;;10.60;75.20;;;;;;4962552;28;20212;-77
2022/04/18 01:00:37;;;;;;;8.40;4.80;;;10.50;75.20;;;;;;4961184;28;20245;-76
2022/04/18 01:03:05;;;;;;;11.30;5.57;;;10.50;75.90;;;;;;4960947;28;20197;-78
2022/04/18 01:05:35;;;;;;;7.67;4.90;;;10.50;75.80;;;;;;4961270;28;20919;-77
2022/04/18 01:08:05;;;;;;;7.43;4.60;;;10.50;76.30;;;;;;4964718;28;20201;-77
2022/04/18 01:10:33;;;;;;;7.60;4.57;;;10.50;76.30;;;;;;4963474;28;20208;-76
2022/04/18 01:13:02;;;;;;;8.13;4.30;;;10.50;76.30;;;;;;4960821;28;20729;-77
2022/04/18 01:15:30;;;;;;;4.77;3.87;;;10.50;76.10;;;;;;4961752;28;20193;-76
2022/04/18 01:17:58;;;;;;;5.53;2.40;;;10.50;75.50;;;;;;4966154;28;20237;-77
2022/04/18 01:20:34;;;;;;;3.80;2.33;;;10.50;74.30;;;;;;4965999;28;20222;-77
2022/04/18 01:23:07;;;;;;;3.90;2.50;;;10.40;72.80;;;;;;4967272;28;20212;-76
2022/04/18 01:31:09;;;;;;;5.40;3.43;;;10.40;72.70;;;;;;4959345;28;20201;-78
2022/04/18 01:33:38;;;;;;;6.83;4.10;;;10.50;73.10;;;;;;4967297;28;20205;-77
2022/04/18 01:36:07;;;;;;;7.13;3.87;;;10.50;73.30;;;;;;4966402;28;21240;-78
2022/04/18 01:38:37;;;;;;;5.17;3.60;;;10.50;73.70;;;;;;4965081;28;20229;-76
2022/04/18 01:41:09;;;;;;;4.67;2.80;;;10.50;73.90;;;;;;4966132;28;20331;-79
2022/04/18 01:43:40;;;;;;;5.37;3.00;;;10.50;73.70;;;;;;4965681;28;20205;-78
2022/04/18 01:46:08;;;;;;;6.03;3.20;;;10.50;73.50;;;;;;4963078;28;20691;-77
2022/04/18 01:48:37;;;;;;;4.23;2.73;;;10.60;73.50;;;;;;4967886;28;20200;-77
2022/04/18 01:51:05;;;;;;;4.37;2.97;;;10.50;73.30;;;;;;4968145;28;20204;-75
2022/04/18 01:53:34;;;;;;;4.90;2.80;;;10.50;73.30;;;;;;4967997;28;20216;-77
2022/04/18 01:56:04;;;;;;;4.90;3.23;;;10.60;73.20;;;;;;4967502;28;20596;-77
2022/04/18 01:58:32;;;;;;;5.77;3.80;;;10.60;73.10;;;;;;4964239;28;20197;-76
2022/04/18 02:01:00;;;;;;;7.53;4.50;;;10.60;73.30;;;;;;4967422;28;20225;-77
2022/04/18 02:03:29;;;;;;;6.70;4.70;;;10.60;73.60;;;;;;4965952;28;20205;-76
2022/04/18 02:05:57;;;;;;;8.47;4.13;;;10.50;74.50;;;;;;4967246;28;20202;-77
2022/04/18 02:08:26;;;;;;;6.83;4.27;;;10.50;75.40;;;;;;4967296;28;20207;-76
2022/04/18 02:10:55;;;;;;;6.73;5.00;;;10.50;75.50;;;;;;4967343;28;20200;-77
2022/04/18 02:13:25;;;;;;;8.53;5.57;;;10.50;75.70;;;;;;4967435;28;20205;-76
2022/04/18 02:15:55;;;;;;;8.73;5.40;;;10.40;76.30;;;;;;4966965;28;20729;-78
2022/04/18 02:18:24;;;;;;;8.00;5.40;;;10.40;76.60;;;;;;4963250;28;20210;-77
2022/04/18 02:20:52;;;;;;;7.80;5.10;;;10.30;77.20;;;;;;4964645;28;20216;-78
2022/04/18 02:23:20;;;;;;;8.30;5.63;;;10.30;77.40;;;;;;4964749;28;20205;-77
2022/04/18 02:25:49;;;;;;;8.53;5.90;;;10.30;78.00;;;;;;4967004;28;20492;-77
2022/04/18 02:28:17;;;;;;;7.83;5.50;;;10.20;78.20;;;;;;4965486;28;20205;-77
2022/04/18 02:30:47;;;;;;;8.87;5.87;;;10.20;78.40;;;;;;4966530;28;20218;-77
2022/04/18 02:33:15;;;;;;;8.90;5.97;;;10.20;78.30;;;;;;4967711;28;20270;-78
2022/04/18 02:35:43;;;;;;;8.83;6.07;;;10.10;79.00;;;;;;4966374;28;20908;-77
2022/04/18 02:38:12;;;;;;;10.00;6.63;;;10.10;78.80;;;;;;4966683;28;20766;-77
2022/04/18 02:40:40;;;;;;;9.03;6.20;;;10.10;78.80;;;;;;4966127;28;20225;-77
2022/04/18 02:43:08;;;;;;;9.37;5.90;;;10.10;79.70;;;;;;4966398;28;20502;-77
2022/04/18 02:45:37;;;;;;;8.67;6.03;;;10.00;78.90;;;;;;4966358;28;20388;-76
2022/04/18 02:48:08;;;;;;;11.13;6.37;;;10.10;78.90;;;;;;4966188;28;20292;-78
2022/04/18 02:50:36;;;;;;;8.47;6.03;;;10.00;79.30;;;;;;4964995;28;20734;-78
2022/04/18 02:53:06;;;;;;;9.70;6.27;;;10.10;79.40;;;;;;4966096;28;20202;-78
2022/04/18 02:55:34;;;;;;;10.57;6.20;;;10.00;79.50;;;;;;4964826;28;20198;-77
2022/04/18 02:58:03;;;;;;;10.13;6.73;;;10.00;79.70;;;;;;4966844;28;20202;-77
2022/04/18 03:00:31;;;;;;;9.83;6.33;;;10.00;79.90;;;;;;4966617;28;20221;-77
2022/04/18 03:02:59;;;;;;;10.97;6.90;;;9.90;79.70;;;;;;4964690;28;20210;-77
2022/04/18 03:05:29;;;;;;;9.27;5.93;;;10.00;79.80;;;;;;4965673;28;20297;-77
2022/04/18 03:07:58;;;;;;;9.60;6.07;;;10.00;80.00;;;;;;4963903;28;20332;-77
2022/04/18 03:13:08;;;;;;;10.90;7.47;;;9.90;80.20;;;;;;4963977;28;20202;-77
2022/04/18 03:15:36;;;;;;;11.23;6.33;;;9.90;80.20;;;;;;4967079;28;20852;-77
2022/04/18 03:18:05;;;;;;;10.00;6.10;;;9.90;80.20;;;;;;4966408;28;20686;-77
2022/04/18 03:20:35;;;;;;;10.07;6.23;;;9.90;80.30;;;;;;4967014;28;20306;-78
2022/04/18 03:23:03;;;;;;;11.93;7.07;;;9.90;80.30;;;;;;4967188;28;20200;-78
2022/04/18 03:25:31;;;;;;;10.77;6.60;;;9.90;80.30;;;;;;4967191;28;20239;-78
2022/04/18 03:28:00;;;;;;;10.50;6.60;;;9.90;80.40;;;;;;4966607;28;20270;-77
2022/04/18 03:30:28;;;;;;;10.30;6.40;;;9.90;80.60;;;;;;4966212;28;20232;-77
2022/04/18 03:32:56;;;;;;;10.83;6.67;;;9.80;80.30;;;;;;4963601;28;20201;-77
2022/04/18 03:35:25;;;;;;;11.33;7.33;;;9.90;80.50;;;;;;4966125;28;20189;-77
2022/04/18 03:40:55;;;;;;;10.47;6.77;;;9.90;80.60;;;;;;4922710;28;20317;-78
2022/04/18 03:43:23;;;;;;;11.33;6.63;;;9.90;80.70;;;;;;4924882;29;20272;-77
2022/04/18 03:45:54;;;;;;;10.13;6.50;;;9.80;80.60;;;;;;4940384;28;20206;-77
2022/04/18 03:48:22;;;;;;;14.00;7.23;;;9.90;80.60;;;;;;4963699;28;20208;-78
2022/04/18 03:50:51;;;;;;;10.37;6.47;;;9.90;80.70;;;;;;4965137;28;20208;-76
2022/04/18 03:53:20;;;;;;;11.80;6.50;;;9.90;80.60;;;;;;4966106;28;20198;-77
2022/04/18 03:55:48;;;;;;;10.30;6.43;;;9.90;80.50;;;;;;4962857;28;20224;-77
2022/04/18 03:58:17;;;;;;;13.03;6.70;;;9.90;80.50;;;;;;4964519;28;20204;-76
2022/04/18 04:00:45;;;;;;;11.80;6.83;;;9.90;80.50;;;;;;4961495;28;20194;-77
2022/04/18 04:03:14;;;;;;;11.20;6.77;;;9.90;80.50;;;;;;4965646;28;20626;-78
2022/04/18 04:05:42;;;;;;;10.17;6.47;;;9.90;80.40;;;;;;4964195;28;20205;-77
2022/04/18 04:08:10;;;;;;;9.07;6.13;;;9.90;80.50;;;;;;4963239;28;20204;-78
2022/04/18 04:10:40;;;;;;;9.57;6.50;;;9.90;80.50;;;;;;4965436;28;20205;-77
2022/04/18 04:13:09;;;;;;;9.93;5.87;;;10.00;80.50;;;;;;4963613;28;20194;-77
2022/04/18 04:15:37;;;;;;;8.67;5.67;;;10.00;80.60;;;;;;4965522;28;20205;-77
2022/04/18 04:18:06;;;;;;;9.83;6.50;;;9.90;80.50;;;;;;4965727;28;20194;-78
2022/04/18 04:20:34;;;;;;;11.00;6.93;;;9.90;80.40;;;;;;4964652;28;20651;-77
2022/04/18 04:23:02;;;;;;;10.20;7.10;;;9.90;80.30;;;;;;4964042;28;20236;-78
2022/04/18 04:25:31;;;;;;;9.73;6.67;;;10.00;80.40;;;;;;4963995;28;20205;-78
2022/04/18 04:28:01;;;;;;;12.60;6.87;;;10.00;80.40;;;;;;4960140;28;20194;-78
2022/04/18 04:30:29;;;;;;;8.80;6.00;;;10.00;80.30;;;;;;4964588;28;20234;-77
2022/04/18 04:32:58;;;;;;;9.63;6.17;;;10.00;80.20;;;;;;4965601;28;20196;-78
2022/04/18 04:35:26;;;;;;;11.10;6.73;;;10.00;80.40;;;;;;4965280;28;20707;-78
2022/04/18 04:37:55;;;;;;;12.93;6.67;;;10.00;80.20;;;;;;4964554;28;20201;-78
2022/04/18 04:40:23;;;;;;;10.33;6.27;;;10.00;80.20;;;;;;4964944;28;20193;-78
2022/04/18 04:42:51;;;;;;;9.60;6.27;;;10.10;80.10;;;;;;4964727;28;20222;-79
2022/04/18 04:45:21;;;;;;;10.47;6.40;;;10.10;80.00;;;;;;4965657;28;20235;-78
2022/04/18 04:47:49;;;;;;;9.77;6.53;;;10.10;80.00;;;;;;4963620;28;20239;-78
2022/04/18 04:50:18;;;;;;;8.17;5.80;;;10.20;80.00;;;;;;4964377;28;20254;-78
2022/04/18 04:52:46;;;;;;;12.43;6.20;;;10.20;79.90;;;;;;4964005;28;20186;-78
2022/04/18 04:55:16;;;;;;;10.27;6.23;;;10.20;79.80;;;;;;4966181;28;20205;-78
2022/04/18 04:57:45;;;;;;;9.80;5.90;;;10.30;79.80;;;;;;4965229;28;21556;-78
2022/04/18 05:00:14;;;;;;;11.60;6.60;;;10.30;79.80;;;;;;4963497;28;20197;-77
2022/04/18 05:02:44;;;;;;;10.77;6.50;;;10.30;79.60;;;;;;4961909;28;20209;-77
2022/04/18 05:05:12;;;;;;;10.50;5.70;;;10.30;79.40;;;;;;4965056;28;20267;-78
2022/04/18 05:07:41;;;;;;;8.87;6.40;;;10.30;79.40;;;;;;4965118;28;20198;-78
2022/04/18 05:10:09;;;;;;;11.17;6.23;;;10.40;79.30;;;;;;4963445;28;20879;-78
2022/04/18 05:12:38;;;;;;;12.27;6.13;;;10.40;79.30;;;;;;4965226;28;20598;-77
2022/04/18 05:15:08;;;;;;;9.50;6.17;;;10.40;79.20;;;;;;4963786;28;20206;-77
2022/04/18 05:17:36;;;;;;;12.03;6.50;;;10.50;79.30;;;;;;4964980;28;20216;-77
2022/04/18 05:20:08;;;;;;;12.83;6.03;;;10.50;79.20;;;;;;4963925;28;20209;-77
2022/04/18 05:22:36;;;;;;;11.53;6.77;;;10.60;79.10;;;;;;4964959;28;20216;-77
2022/04/18 05:25:05;;;;;;;10.40;6.50;;;10.60;79.00;;;;;;4963521;28;20217;-79
2022/04/18 05:27:34;;;;;;;9.23;6.57;;;10.60;79.00;;;;;;4965721;28;20201;-78
2022/04/18 05:30:02;;;;;;;11.47;6.43;;;10.60;78.90;;;;;;4962767;28;20739;-77
2022/04/18 05:32:31;;;;;;;11.37;6.77;;;10.70;78.90;;;;;;4963670;28;20675;-79
2022/04/18 05:34:59;;;;;;;10.20;6.47;;;10.70;78.80;;;;;;4964512;28;20206;-78
2022/04/18 05:37:29;;;;;;;10.87;6.00;;;10.80;78.80;;;;;;4963873;28;20691;-78
2022/04/18 05:39:57;;;;;;;10.00;6.00;;;10.80;79.50;;;;;;4963413;28;20202;-79
2022/04/18 05:42:25;;;;;;;8.70;5.90;;;10.90;78.40;;;;;;4961957;28;20229;-78
2022/04/18 05:44:54;;;;;;;8.83;5.37;;;10.90;78.30;;;;;;4961828;28;20314;-76
2022/04/18 05:47:22;;;;;;;9.33;5.30;;;11.00;78.30;;;;;;4962210;28;20201;-77
2022/04/18 05:49:50;;;;;;;8.30;5.60;;;11.00;78.00;;;;;;4962662;28;20213;-78
2022/04/18 05:52:19;;;;;;;8.73;5.63;;;11.10;77.80;;;;;;4962671;28;20864;-77
2022/04/18 05:54:48;;;;;;;10.80;5.90;;;11.20;77.70;;;;;;4962984;28;20198;-78
2022/04/18 05:57:21;;;;;;;8.77;6.10;;;11.20;77.50;;;;;;4962326;28;20897;-79
2022/04/18 05:59:50;;;;;;;10.77;5.93;;;11.20;77.00;;;;;;4961655;28;20770;-79
2022/04/18 06:02:19;;;;;;;7.73;5.30;;;11.20;76.90;;;;;;4964687;28;20228;-78
2022/04/18 06:04:47;;;;;;;14.03;6.10;;;11.30;76.80;;;;;;4966418;28;20194;-77
2022/04/18 06:07:16;;;;;;;8.17;5.17;;;11.30;76.60;;;;;;4966586;28;20930;-76
2022/04/18 06:09:44;;;;;;;10.00;5.47;;;11.40;76.50;;;;;;4965684;28;20204;-78
2022/04/18 06:12:20;;;;;;;8.60;5.00;;;11.40;76.30;;;;;;4967429;28;20193;-78
2022/04/18 06:14:48;;;;;;;7.47;5.03;;;11.40;76.10;;;;;;4965159;28;20204;-78
2022/04/18 06:17:17;;;;;;;7.77;5.00;;;11.40;75.90;;;;;;4967425;28;20205;-78
2022/04/18 06:19:45;;;;;;;9.93;5.00;;;11.50;75.80;;;;;;4965486;28;20200;-78
2022/04/18 06:22:14;;;;;;;8.07;4.90;;;11.50;75.60;;;;;;4965471;28;20226;-78
2022/04/18 06:24:42;;;;;;;10.50;5.23;;;11.50;75.50;;;;;;4966097;28;20205;-78
2022/04/18 06:27:10;;;;;;;7.60;4.93;;;11.50;75.20;;;;;;4965553;28;20200;-78
2022/04/18 06:29:40;;;;;;;9.10;4.67;;;11.50;75.00;;;;;;4954221;28;20236;-78
2022/04/18 06:32:09;;;;;;;7.17;5.00;;;11.50;74.00;;;;;;4945995;28;20206;-78
2022/04/18 06:34:45;;;;;;;7.67;4.73;;;11.50;73.70;;;;;;4946403;28;20962;-77
2022/04/18 06:37:14;;;;;;;6.67;4.47;;;11.50;73.60;;;;;;4946356;28;20202;-77
2022/04/18 06:39:43;;;;;;;9.43;4.80;;;11.50;73.40;;;;;;4945229;28;20201;-77
2022/04/18 06:42:11;;;;;;;6.73;4.33;;;11.50;73.30;;;;;;4947259;28;20202;-78
2022/04/18 06:44:41;;;;;;;9.77;4.83;;;11.50;73.40;;;;;;4946058;28;20217;-79
2022/04/18 06:47:09;;;;;;;8.23;4.40;;;11.50;73.10;;;;;;4946064;28;20229;-78
2022/04/18 06:49:38;;;;;;;7.87;5.30;;;11.60;73.00;;;;;;4946201;28;20205;-78
2022/04/18 06:52:07;;;;;;;8.10;5.03;;;11.60;72.70;;;;;;4945317;28;20210;-78
2022/04/18 06:54:35;;;;;;;12.97;6.60;;;11.70;72.90;;;;;;4947136;28;20885;-77
2022/04/18 06:57:03;;;;;;;10.70;6.70;;;11.70;72.80;;;;;;4947333;28;20197;-75
2022/04/18 06:59:31;;;;;;;10.17;6.40;;;11.80;72.70;;;;;;4946658;28;20568;-77
2022/04/18 07:02:01;;;;;;;8.80;6.10;;;11.90;72.80;;;;;;4947879;28;20214;-76
2022/04/18 07:04:30;;;;;;;8.67;5.97;;;11.90;72.60;;;;;;4945987;28;20230;-77
2022/04/18 07:06:58;;;;;;;12.30;6.37;;;11.90;72.50;;;;;;4945862;28;20338;-77
2022/04/18 07:09:27;;;;;;;9.73;5.30;;;12.00;72.60;;;;;;4945410;28;20676;-81
2022/04/18 07:11:55;;;;;;;7.73;4.63;;;12.00;72.40;;;;;;4945929;28;20195;-76
2022/04/18 07:14:24;;;;;;;8.03;4.80;;;12.10;71.90;;;;;;4945280;28;20646;-78
2022/04/18 07:16:54;;;;;;;8.63;5.60;;;12.20;71.70;;;;;;4947449;28;20202;-77
2022/04/18 07:19:23;;;;;;;8.63;4.90;;;12.20;72.00;;;;;;4946649;28;20199;-78
2022/04/18 07:21:53;;;;;;;6.93;4.60;;;12.30;70.00;;;;;;4946014;28;20197;-78
2022/04/18 07:24:23;;;;;;;7.33;4.17;;;12.30;68.20;;;;;;4946493;28;20220;-79
2022/04/18 07:27:00;;;;;;;9.97;4.60;;;12.30;68.60;;;;;;4946051;28;20202;-76
2022/04/18 07:29:34;;;;;;;9.03;4.30;;;12.30;68.20;;;;;;4945738;28;20234;-78
2022/04/18 07:32:09;;;;;;;4.93;2.70;;;12.40;68.60;;;;;;4941989;28;20189;-76
2022/04/18 07:34:40;;;;;;;5.17;2.83;;;12.50;65.00;;;;;;4945720;28;20194;-78
2022/04/18 07:37:20;;;;;;;4.73;2.20;;;12.50;65.50;;;;;;4946394;28;20206;-78
2022/04/18 07:39:49;;;;;;;4.33;2.40;;;12.60;63.80;;;;;;4946763;28;20635;-77
2022/04/18 07:42:21;;;;;;;4.30;2.70;;;12.60;62.40;;;;;;4946846;28;20198;-76
2022/04/18 07:44:51;;;;;;;4.53;2.70;;;12.60;62.30;;;;;;4946327;28;20230;-77
2022/04/18 07:47:20;;;;;;;4.07;2.60;;;12.70;63.10;;;;;;4947804;28;20268;-76
2022/04/18 07:49:50;;;;;;;5.87;3.40;;;12.80;63.60;;;;;;4944182;28;20203;-75
2022/04/18 07:52:19;;;;;;;4.80;2.97;;;12.90;61.30;;;;;;4946147;28;20210;-76
2022/04/18 07:54:50;;;;;;;4.97;3.20;;;12.90;61.80;;;;;;4896861;28;20207;-76
2022/04/18 07:57:25;;;;;;;5.30;2.87;;;13.00;62.20;;;;;;4945856;28;20205;-77
2022/04/18 07:59:54;;;;;;;4.43;2.73;;;13.10;62.00;;;;;;4945607;28;20206;-78
2022/04/18 08:02:26;;;;;;;4.53;2.63;;;13.20;62.70;;;;;;4945404;28;20668;-77
2022/04/18 08:05:00;;;;;;;4.40;2.90;;;13.20;62.50;;;;;;4945302;28;20613;-77
2022/04/18 08:07:30;;;;;;;4.57;2.83;;;13.20;61.70;;;;;;4943747;28;20204;-80
2022/04/18 08:10:05;;;;;;;2.63;1.57;;;13.30;61.10;;;;;;4946020;28;20833;-79
2022/04/18 08:12:53;;;;;;;2.33;1.43;;;13.30;59.60;;;;;;4947583;28;20206;-79
2022/04/18 08:15:21;;;;;;;2.80;1.63;;;13.30;58.30;;;;;;4947114;28;20372;-78
2022/04/18 08:17:51;;;;;;;2.57;1.43;;;13.30;58.20;;;;;;4948448;28;20264;-77
2022/04/18 08:24:17;;;;;;;2.60;1.70;;;13.40;58.90;;;;;;4948150;28;20337;-77
2022/04/18 08:26:47;;;;;;;3.43;1.90;;;13.50;58.30;;;;;;4945188;28;20214;-78
2022/04/18 08:29:16;;;;;;;3.50;1.77;;;13.50;58.20;;;;;;4943956;28;20231;-77
2022/04/18 08:31:44;;;;;;;3.33;1.93;;;13.60;58.30;;;;;;4944873;28;20238;-79
2022/04/18 08:34:18;;;;;;;3.17;1.73;;;13.60;58.00;;;;;;4945493;28;20194;-75
2022/04/18 08:36:47;;;;;;;4.17;1.20;;;13.70;57.50;;;;;;4946902;28;20249;-75
2022/04/18 08:39:17;;;;;;;2.77;1.47;;;13.80;57.40;;;;;;4942801;28;20225;-74
2022/04/18 08:41:50;;;;;;;3.47;1.30;;;13.80;56.40;;;;;;4942952;28;20205;-76
2022/04/18 08:44:20;;;;;;;2.43;1.00;;;13.90;55.90;;;;;;4943574;28;20210;-75
2022/04/18 08:46:48;;;;;;;2.73;1.53;;;14.00;56.20;;;;;;4945472;28;20978;-77
2022/04/18 08:54:57;;;;;;;2.47;1.30;;;14.30;56.80;;;;;;4944367;28;20665;-76
2022/04/18 08:57:25;;;;;;;1.73;1.03;;;14.40;56.60;;;;;;4943016;28;20292;-78
2022/04/18 08:59:54;;;;;;;2.67;1.10;;;14.50;55.80;;;;;;4944588;28;20217;-75
2022/04/18 09:02:22;;;;;;;3.23;1.17;;;14.60;55.70;;;;;;4944715;28;20236;-75
2022/04/18 09:04:51;;;;;;;1.50;1.00;;;14.70;55.30;;;;;;4943076;28;20218;-76
2022/04/18 09:07:19;;;;;;;3.37;1.30;;;14.70;54.20;;;;;;4941827;28;20205;-76
2022/04/18 09:09:53;;;;;;;3.07;1.10;;;14.80;54.10;;;;;;4941877;28;20209;-75
2022/04/18 09:12:27;;;;;;;2.87;1.40;;;14.80;54.70;;;;;;4942289;28;20204;-77
2022/04/18 09:14:57;;;;;;;2.23;1.40;;;14.90;54.00;;;;;;4944065;28;20556;-75
2022/04/18 09:17:30;;;;;;;2.10;1.50;;;15.00;54.20;;;;;;4942276;28;20198;-74
2022/04/18 09:20:07;;;;;;;2.70;1.30;;;15.10;53.90;;;;;;4943747;28;20837;-75
2022/04/18 09:22:42;;;;;;;2.17;1.23;;;15.10;53.70;;;;;;4942260;28;20198;-76
2022/04/18 09:25:15;;;;;;;3.47;1.20;;;15.20;53.00;;;;;;4943059;28;20228;-76
2022/04/18 09:27:54;;;;;;;2.60;1.13;;;15.20;53.00;;;;;;4943824;28;20575;-75
2022/04/18 09:30:46;;;;;;;2.33;1.73;;;15.30;53.20;;;;;;4947331;28;20316;-76
2022/04/18 09:33:16;;;;;;;3.50;1.50;;;15.30;51.00;;;;;;4945325;28;20261;-74
2022/04/18 09:39:38;;;;;;;4.30;1.50;;;15.40;51.90;;;;;;4945214;28;20281;-74
2022/04/18 09:42:11;;;;;;;4.27;0.97;;;15.40;52.10;;;;;;4947334;28;20206;-77
2022/04/18 09:44:41;;;;;;;2.00;1.00;;;15.50;52.20;;;;;;4945915;28;20226;-75
2022/04/18 09:47:16;;;;;;;2.33;1.13;;;15.50;51.90;;;;;;4945399;28;20206;-77
2022/04/18 09:49:45;;;;;;;2.13;1.13;;;15.50;51.70;;;;;;4946826;28;20197;-78
2022/04/18 09:52:15;;;;;;;1.67;1.23;;;15.60;52.10;;;;;;4946117;28;20206;-77
2022/04/18 09:54:48;;;;;;;2.27;1.33;;;15.70;51.50;;;;;;4946258;28;20199;-76
2022/04/18 09:57:24;;;;;;;1.77;1.10;;;15.80;51.20;;;;;;4947747;28;20194;-79
2022/04/18 09:59:57;;;;;;;3.00;1.20;;;15.80;50.80;;;;;;4946525;28;20202;-75
2022/04/18 10:02:27;;;;;;;2.27;1.10;;;15.90;50.60;;;;;;4947021;28;20195;-75
2022/04/18 10:04:55;;;;;;;1.80;1.00;;;15.90;50.50;;;;;;4946507;28;20264;-76
2022/04/18 10:07:24;;;;;;;1.90;1.20;;;16.00;50.50;;;;;;4945441;28;20202;-76
2022/04/18 10:09:54;;;;;;;4.97;1.00;;;16.00;50.50;;;;;;4945361;28;20206;-77
2022/04/18 10:12:24;;;;;;;1.80;0.93;;;16.10;50.50;;;;;;4947462;28;20194;-76
2022/04/18 10:14:54;;;;;;;2.13;1.00;;;16.10;51.00;;;;;;4946906;28;20210;-76
2022/04/18 10:17:24;;;;;;;2.50;1.40;;;16.20;50.80;;;;;;4946085;28;20194;-77
2022/04/18 10:20:04;;;;;;;2.27;1.27;;;16.10;49.30;;;;;;4946608;28;20782;-76
2022/04/18 10:22:50;;;;;;;2.90;1.10;;;16.20;49.80;;;;;;4947339;28;20221;-77
2022/04/18 10:25:33;;;;;;;1.50;0.93;;;16.20;49.90;;;;;;4945138;28;20217;-77
2022/04/18 10:28:05;;;;;;;2.80;1.20;;;16.30;50.00;;;;;;4946287;28;20715;-77
2022/04/18 10:30:45;;;;;;;2.03;1.20;;;16.30;49.80;;;;;;4945444;28;20455;-79
2022/04/18 10:33:15;;;;;;;1.97;0.90;;;16.40;50.50;;;;;;4946690;28;20205;-77
2022/04/18 10:36:01;;;;;;;2.43;1.13;;;16.50;49.70;;;;;;4951674;28;20194;-77
2022/04/18 10:38:37;;;;;;;2.10;1.03;;;16.50;49.60;;;;;;4957628;28;20194;-75
2022/04/18 10:41:45;;;;;;;2.00;1.07;;;16.50;49.70;;;;;;4961343;28;21417;-76
2022/04/18 10:44:21;;;;;;;1.40;1.00;;;16.50;49.20;;;;;;4959905;28;20967;-75
2022/04/18 10:47:04;;;;;;;1.80;1.00;;;16.50;49.70;;;;;;4949030;28;20213;-75
2022/04/18 10:49:33;;;;;;;1.47;0.87;;;16.50;49.10;;;;;;4945093;28;20202;-74
2022/04/18 10:52:08;;;;;;;2.57;1.00;;;16.50;48.80;;;;;;4945044;28;20293;-74
2022/04/18 10:54:37;;;;;;;5.27;0.93;;;16.60;49.20;;;;;;4946215;28;20201;-74
2022/04/18 10:57:11;;;;;;;1.60;0.97;;;16.60;48.40;;;;;;4943610;28;20202;-75
2022/04/18 10:59:42;;;;;;;3.50;1.13;;;16.70;48.90;;;;;;4945069;28;20422;-74
2022/04/18 11:02:42;;;;;;;1.30;1.00;;;16.80;49.40;;;;;;4949018;28;20731;-75
2022/04/18 11:05:13;;;;;;;2.93;1.13;;;16.80;49.40;;;;;;4952294;28;20798;-75
2022/04/18 11:07:44;;;;;;;1.77;0.83;;;16.90;49.00;;;;;;4950799;28;20194;-76
2022/04/18 11:10:20;;;;;;;1.77;0.97;;;16.90;48.90;;;;;;4949241;28;20288;-75
2022/04/18 11:12:52;;;;;;;1.83;1.00;;;17.00;48.60;;;;;;4949721;28;20206;-76
2022/04/18 11:15:21;;;;;;;1.90;1.00;;;17.00;48.70;;;;;;4952454;28;20308;-76
2022/04/18 11:17:51;;;;;;;2.20;1.07;;;17.00;48.40;;;;;;4951118;28;20210;-77
2022/04/18 11:20:30;;;;;;;1.70;1.40;;;17.00;48.00;;;;;;4952426;28;20269;-75
2022/04/18 11:23:19;;;;;;;1.13;1.00;;;16.90;47.10;;;;;;4947881;28;20200;-75
2022/04/18 11:25:53;;;;;;;1.87;1.23;;;17.00;47.50;;;;;;4949030;28;20296;-76
2022/04/18 11:28:23;;;;;;;1.77;1.07;;;17.00;47.80;;;;;;4952339;28;20202;-76
2022/04/18 11:32:06;;;;;;;1.70;1.03;;;17.00;47.60;;;;;;4951536;28;20245;-76
2022/04/18 11:34:43;;;;;;;3.00;1.53;;;16.90;47.40;;;;;;4947024;28;20208;-76
2022/04/18 11:37:13;;;;;;;2.60;1.07;;;16.90;47.70;;;;;;4944777;28;20845;-76
2022/04/18 11:39:44;;;;;;;1.70;1.10;;;16.80;47.70;;;;;;4943677;28;20201;-75
2022/04/18 11:42:16;;;;;;;1.97;0.97;;;16.70;47.10;;;;;;4946632;28;20214;-75
2022/04/18 11:45:31;;;;;;;2.63;1.40;;;16.60;47.10;;;;;;4947885;28;20762;-76
2022/04/18 11:48:03;;;;;;;3.43;1.13;;;16.50;46.70;;;;;;4944778;28;20581;-74
2022/04/18 11:50:36;;;;;;;3.80;1.00;;;16.50;47.20;;;;;;4949556;28;20831;-76
2022/04/18 11:53:07;;;;;;;2.07;1.23;;;16.40;46.90;;;;;;4949297;28;20669;-75
2022/04/18 11:55:44;;;;;;;2.67;1.20;;;16.30;47.10;;;;;;4944555;28;20194;-76
2022/04/18 11:58:20;;;;;;;1.63;1.17;;;16.20;47.40;;;;;;4947165;28;20257;-75
2022/04/18 12:10:25;;;;;;;1.70;1.00;;;15.90;47.90;;;;;;4946368;28;20205;-76
2022/04/18 12:12:56;;;;;;;2.50;1.03;;;15.90;47.90;;;;;;4944654;28;20634;-75
2022/04/18 12:15:25;;;;;;;3.17;1.57;;;15.80;47.80;;;;;;4944834;28;20199;-76
2022/04/18 12:17:55;;;;;;;1.60;0.97;;;15.70;48.00;;;;;;4945348;28;20198;-76
2022/04/18 12:20:26;;;;;;;2.00;1.20;;;15.70;48.00;;;;;;4943659;28;20205;-75
2022/04/18 12:22:58;;;;;;;3.17;0.97;;;15.60;48.00;;;;;;4943341;28;20291;-74
2022/04/18 12:25:28;;;;;;;1.50;0.97;;;15.60;48.00;;;;;;4943526;28;20202;-75
2022/04/18 12:27:58;;;;;;;2.70;1.10;;;15.50;47.70;;;;;;4944210;28;20210;-75
2022/04/18 12:30:28;;;;;;;4.20;1.70;;;15.50;47.90;;;;;;4944285;28;20233;-76
2022/04/18 12:33:10;;;;;;;3.03;1.30;;;15.50;48.30;;;;;;4944895;28;20528;-74
2022/04/18 12:35:39;;;;;;;2.90;1.27;;;15.50;48.80;;;;;;4949461;28;20207;-76
2022/04/18 12:38:10;;;;;;;3.50;1.40;;;15.40;48.80;;;;;;4943538;28;20205;-74
2022/04/18 12:40:40;;;;;;;3.57;1.50;;;15.40;48.70;;;;;;4943885;28;20200;-76
2022/04/18 12:43:10;;;;;;;3.17;1.10;;;15.40;48.80;;;;;;4944013;28;20198;-75
2022/04/18 12:49:20;;;;;;;2.00;1.27;;;15.40;48.90;;;;;;4939250;28;20185;-74
2022/04/18 12:51:53;;;;;;;2.30;1.17;;;15.40;48.90;;;;;;4941890;28;20202;-75
2022/04/18 12:54:24;;;;;;;2.27;1.20;;;15.40;48.50;;;;;;4943454;28;20308;-76
2022/04/18 12:56:53;;;;;;;3.13;1.20;;;15.30;48.50;;;;;;4942520;28;20209;-75
2022/04/18 12:59:26;;;;;;;4.13;1.70;;;15.30;48.70;;;;;;4943104;28;20198;-75
2022/04/18 13:02:09;;;;;;;1.83;1.00;;;15.30;48.70;;;;;;4942136;28;20191;-74
2022/04/18 13:04:38;;;;;;;6.03;1.40;;;15.30;48.20;;;;;;4943385;28;20226;-75
2022/04/18 13:07:08;;;;;;;3.87;1.10;;;15.30;47.60;;;;;;4942263;28;20237;-74
2022/04/18 13:09:38;;;;;;;2.87;1.10;;;15.30;47.40;;;;;;4941287;28;20674;-76
2022/04/18 13:12:08;;;;;;;1.67;1.00;;;15.30;47.80;;;;;;4943094;28;20193;-75
2022/04/18 13:15:03;;;;;;;2.30;1.00;;;15.30;48.00;;;;;;4947801;28;20209;-74
2022/04/18 13:17:33;;;;;;;4.13;1.00;;;15.30;48.00;;;;;;4945662;28;20209;-75
2022/04/18 13:20:05;;;;;;;2.03;1.03;;;15.30;48.20;;;;;;4944352;28;20206;-75
2022/04/18 13:22:35;;;;;;;1.33;0.90;;;15.30;48.40;;;;;;4944068;28;20220;-75
2022/04/18 13:25:12;;;;;;;2.47;1.00;;;15.30;48.30;;;;;;4944132;28;20209;-76
2022/04/18 13:27:41;;;;;;;2.67;1.13;;;15.30;47.80;;;;;;4948053;28;20214;-74
2022/04/18 13:30:28;;;;;;;2.17;1.17;;;15.30;47.40;;;;;;4944557;28;20265;-76
2022/04/18 13:32:57;;;;;;;3.47;1.07;;;15.40;47.60;;;;;;4946260;28;20213;-76
2022/04/18 13:38:24;;;;;;;2.03;1.17;;;15.50;47.80;;;;;;4945498;28;20198;-75
2022/04/18 13:40:56;;;;;;;2.33;1.07;;;15.50;48.10;;;;;;4956090;28;20202;-73
2022/04/18 13:43:26;;;;;;;2.13;1.07;;;15.60;47.80;;;;;;4943413;28;20778;-74
2022/04/18 13:45:55;;;;;;;1.47;1.00;;;15.60;47.70;;;;;;4943523;28;20283;-76